createdAt,value
2023-04-18T00:00:50.541Z,86.72
2023-04-18T00:03:17.230Z,86.15
2023-04-18T00:05:48.087Z,86.28
2023-04-18T00:08:17.134Z,87.33
2023-04-18T00:10:43.561Z,86.81
2023-04-18T00:13:10.156Z,86.57
2023-04-18T00:15:37.023Z,86.46
2023-04-18T00:18:06.107Z,86.58
2023-04-18T00:20:32.970Z,86.93
2023-04-18T00:23:00.679Z,86.65
2023-04-18T00:25:27.058Z,87.08
2023-04-18T00:27:53.451Z,86.84
2023-04-18T00:30:21.275Z,86.94
2023-04-18T00:32:47.643Z,86.91
2023-04-18T00:35:14.117Z,87.48
2023-04-18T00:37:40.522Z,87.66
2023-04-18T00:40:07.135Z,88.07
2023-04-18T00:42:33.599Z,87.90
2023-04-18T00:45:00.109Z,88.16
2023-04-18T00:47:26.540Z,87.58
2023-04-18T00:49:52.996Z,87.65
2023-04-18T00:52:19.355Z,87.38
2023-04-18T00:54:45.793Z,87.88
2023-04-18T00:57:12.412Z,87.71
2023-04-18T00:59:38.826Z,87.72
2023-04-18T01:02:05.334Z,87.74
2023-04-18T01:04:34.555Z,87.67
2023-04-18T01:07:01.408Z,87.51
2023-04-18T01:09:27.724Z,87.31
2023-04-18T01:11:54.130Z,87.79
2023-04-18T01:14:20.730Z,87.71
2023-04-18T01:16:48.911Z,87.40
2023-04-18T01:19:19.311Z,87.47
2023-04-18T01:21:45.927Z,88.19
2023-04-18T01:24:14.054Z,87.58
2023-04-18T01:26:44.106Z,87.46
2023-04-18T01:29:10.618Z,87.16
2023-04-18T01:31:38.509Z,87.26
2023-04-18T01:34:05.500Z,87.88
2023-04-18T01:36:33.226Z,87.58
2023-04-18T01:38:59.800Z,87.60
2023-04-18T01:41:29.765Z,87.71
2023-04-18T01:43:58.557Z,87.56
2023-04-18T01:46:24.893Z,87.49
2023-04-18T01:48:51.365Z,87.78
2023-04-18T01:51:17.704Z,87.41
2023-04-18T01:53:44.117Z,87.60
2023-04-18T01:56:10.585Z,87.65
2023-04-18T01:58:37.250Z,87.79
2023-04-18T02:01:04.070Z,87.63
2023-04-18T02:03:30.796Z,87.82
2023-04-18T02:05:57.368Z,88.47
2023-04-18T02:08:23.782Z,87.74
2023-04-18T02:10:50.560Z,87.60
2023-04-18T02:13:16.924Z,87.98
2023-04-18T02:15:46.538Z,87.41
2023-04-18T02:18:12.971Z,87.21
2023-04-18T02:20:39.952Z,87.34
2023-04-18T02:23:06.769Z,87.43
2023-04-18T02:25:33.207Z,87.71
2023-04-18T02:27:59.566Z,87.80
2023-04-18T02:30:26.487Z,87.51
2023-04-18T02:32:53.561Z,87.43
2023-04-18T02:35:20.599Z,87.12
2023-04-18T02:37:46.938Z,87.75
2023-04-18T02:40:13.509Z,87.56
2023-04-18T02:42:39.880Z,87.98
2023-04-18T02:45:06.935Z,87.71
2023-04-18T02:47:40.554Z,87.49
2023-04-18T02:50:13.701Z,87.51
2023-04-18T02:52:40.128Z,87.83
2023-04-18T02:55:06.550Z,88.33
2023-04-18T02:57:33.017Z,87.97
2023-04-18T02:59:59.412Z,88.16
2023-04-18T03:02:28.018Z,87.93
2023-04-18T03:04:56.575Z,87.92
2023-04-18T03:07:23.042Z,88.28
2023-04-18T03:09:51.491Z,88.15
2023-04-18T03:12:17.827Z,88.32
2023-04-18T03:14:44.554Z,88.38
2023-04-18T03:17:10.976Z,88.21
2023-04-18T03:19:37.463Z,88.24
2023-04-18T03:22:03.881Z,88.54
2023-04-18T03:24:30.284Z,87.84
2023-04-18T03:26:56.735Z,88.19
2023-04-18T03:29:24.444Z,88.17
2023-04-18T03:31:50.841Z,88.04
2023-04-18T03:34:17.209Z,87.78
2023-04-18T03:36:44.551Z,88.16
2023-04-18T03:39:14.706Z,87.94
2023-04-18T03:41:41.210Z,87.89
2023-04-18T03:44:09.332Z,87.81
2023-04-18T03:46:35.905Z,88.09
2023-04-18T03:49:03.702Z,88.26
2023-04-18T03:51:36.469Z,88.38
2023-04-18T03:54:04.004Z,89.02
2023-04-18T03:56:30.425Z,89.02
2023-04-18T03:58:58.720Z,88.91
2023-04-18T04:01:25.105Z,89.20
2023-04-18T04:03:51.610Z,88.91
2023-04-18T04:06:18.436Z,89.06
2023-04-18T04:08:47.436Z,89.27
2023-04-18T04:11:13.812Z,89.45
2023-04-18T04:13:40.192Z,89.07
2023-04-18T04:16:06.844Z,89.56
2023-04-18T04:18:33.252Z,89.40
2023-04-18T04:21:00.301Z,89.41
2023-04-18T04:23:26.842Z,89.39
2023-04-18T04:25:53.543Z,89.47
2023-04-18T04:28:22.710Z,89.40
2023-04-18T04:30:52.426Z,89.33
2023-04-18T04:33:21.880Z,89.35
2023-04-18T04:35:48.269Z,89.61
2023-04-18T04:38:15.383Z,89.29
2023-04-18T04:40:42.248Z,89.80
2023-04-18T04:43:12.798Z,88.97
2023-04-18T04:45:42.064Z,89.33
2023-04-18T04:48:09.021Z,89.37
2023-04-18T04:50:38.976Z,89.10
2023-04-18T04:53:06.353Z,88.58
2023-04-18T04:55:32.890Z,89.05
2023-04-18T04:58:01.554Z,88.84
2023-04-18T05:00:28.847Z,88.95
2023-04-18T05:02:55.877Z,88.76
2023-04-18T05:05:22.452Z,88.67
2023-04-18T05:07:48.802Z,88.32
2023-04-18T05:10:16.332Z,87.75
2023-04-18T05:12:42.781Z,87.76
2023-04-18T05:15:09.326Z,87.15
2023-04-18T05:17:35.667Z,87.20
2023-04-18T05:20:02.144Z,86.88
2023-04-18T05:22:28.590Z,86.28
2023-04-18T05:24:57.860Z,86.39
2023-04-18T05:27:24.294Z,86.30
2023-04-18T05:29:53.485Z,87.37
2023-04-18T05:32:20.118Z,86.57
2023-04-18T05:34:46.943Z,86.29
2023-04-18T05:37:13.309Z,86.38
2023-04-18T05:39:39.918Z,85.52
2023-04-18T05:42:06.291Z,85.95
2023-04-18T05:44:34.792Z,84.87
2023-04-18T05:47:06.744Z,84.46
2023-04-18T05:49:33.293Z,83.60
2023-04-18T05:51:59.640Z,83.85
2023-04-18T05:54:27.518Z,82.38
2023-04-18T05:56:54.289Z,82.76
2023-04-18T05:59:20.900Z,82.24
2023-04-18T06:01:47.228Z,83.25
2023-04-18T06:04:14.185Z,83.52
2023-04-18T06:06:41.081Z,82.80
2023-04-18T06:09:07.595Z,82.40
2023-04-18T06:11:35.585Z,80.62
2023-04-18T06:14:02.244Z,80.09
2023-04-18T06:16:29.836Z,79.74
2023-04-18T06:19:00.962Z,77.38
2023-04-18T06:21:28.958Z,77.59
2023-04-18T06:23:55.499Z,75.82
2023-04-18T06:26:21.939Z,76.57
2023-04-18T06:28:48.267Z,75.70
2023-04-18T06:31:14.755Z,75.75
2023-04-18T06:33:41.261Z,78.24
2023-04-18T06:36:08.892Z,77.66
2023-04-18T06:38:37.696Z,78.23
2023-04-18T06:41:04.979Z,77.04
2023-04-18T06:43:31.568Z,76.46
2023-04-18T06:45:58.564Z,74.09
2023-04-18T06:48:24.967Z,76.62
2023-04-18T06:50:51.310Z,76.79
2023-04-18T06:53:17.859Z,75.35
2023-04-18T06:55:44.247Z,77.93
2023-04-18T06:58:14.024Z,78.72
2023-04-18T07:00:40.421Z,77.48
2023-04-18T07:03:11.350Z,77.73
2023-04-18T07:05:37.989Z,78.46
2023-04-18T07:08:04.343Z,78.54
2023-04-18T07:10:33.664Z,77.73
2023-04-18T07:13:00.052Z,75.65
2023-04-18T07:15:28.807Z,74.50
2023-04-18T07:17:55.283Z,73.48
2023-04-18T07:20:21.666Z,71.74
2023-04-18T07:22:49.167Z,70.20
2023-04-18T07:25:19.237Z,68.62
2023-04-18T07:27:45.860Z,70.92
2023-04-18T07:30:12.402Z,72.33
2023-04-18T07:32:38.903Z,70.53
2023-04-18T07:35:05.503Z,73.23
2023-04-18T07:37:31.848Z,69.69
2023-04-18T07:39:58.517Z,69.91
2023-04-18T07:42:24.854Z,69.27
2023-04-18T07:44:51.684Z,67.21
2023-04-18T07:47:22.397Z,68.99
2023-04-18T07:49:48.935Z,67.89
2023-04-18T07:52:15.397Z,67.83
2023-04-18T07:54:41.823Z,69.34
2023-04-18T07:57:08.169Z,69.00
2023-04-18T07:59:35.985Z,66.56
2023-04-18T08:02:02.554Z,67.93
2023-04-18T08:04:30.426Z,66.12
2023-04-18T08:06:57.259Z,67.20
2023-04-18T08:09:23.686Z,66.70
2023-04-18T08:11:50.120Z,65.59
2023-04-18T08:14:16.537Z,67.23
2023-04-18T08:16:43.610Z,65.90
2023-04-18T08:19:10.526Z,62.87
2023-04-18T08:21:39.504Z,65.84
2023-04-18T08:24:06.161Z,64.64
2023-04-18T08:26:32.526Z,63.34
2023-04-18T08:28:58.876Z,62.85
2023-04-18T08:31:25.993Z,62.61
2023-04-18T08:33:52.447Z,61.36
2023-04-18T08:36:18.813Z,60.82
2023-04-18T08:38:45.635Z,61.39
2023-04-18T08:41:11.955Z,61.63
2023-04-18T08:43:38.326Z,60.11
2023-04-18T08:46:05.848Z,60.45
2023-04-18T08:48:34.769Z,62.12
2023-04-18T08:51:04.508Z,62.87
2023-04-18T08:53:32.739Z,60.01
2023-04-18T08:56:00.309Z,62.70
2023-04-18T08:58:27.669Z,62.42
2023-04-18T09:00:54.446Z,61.98
2023-04-18T09:03:40.125Z,61.24
2023-04-18T09:06:21.749Z,59.50
2023-04-18T09:08:59.855Z,61.89
2023-04-18T09:11:29.714Z,60.83
2023-04-18T09:14:04.631Z,62.79
2023-04-18T09:16:36.630Z,60.83
2023-04-18T09:19:14.450Z,60.44
2023-04-18T09:21:42.503Z,61.76
2023-04-18T09:24:21.936Z,63.13
2023-04-18T09:26:50.636Z,61.17
2023-04-18T09:29:18.489Z,59.19
2023-04-18T09:31:55.190Z,57.31
2023-04-18T09:34:25.140Z,56.71
2023-04-18T09:37:10.772Z,58.09
2023-04-18T09:39:38.629Z,57.50
2023-04-18T09:42:05.639Z,55.93
2023-04-18T09:44:32.128Z,58.49
2023-04-18T09:46:58.459Z,57.11
2023-04-18T09:49:24.893Z,57.38
2023-04-18T09:51:51.999Z,55.28
2023-04-18T09:54:20.625Z,55.23
2023-04-18T09:56:48.126Z,56.10
2023-04-18T09:59:19.214Z,59.25
2023-04-18T10:01:48.881Z,58.03
2023-04-18T10:04:16.032Z,56.42
2023-04-18T10:06:42.964Z,57.44
2023-04-18T10:09:11.895Z,56.58
2023-04-18T10:11:38.415Z,57.29
2023-04-18T10:14:07.003Z,59.25
2023-04-18T10:16:34.980Z,61.28
2023-04-18T10:19:21.938Z,59.70
2023-04-18T10:21:55.119Z,60.49
2023-04-18T10:24:40.160Z,59.72
2023-04-18T10:27:06.563Z,59.44
2023-04-18T10:29:56.619Z,57.75
2023-04-18T10:32:23.528Z,57.99
2023-04-18T10:34:50.424Z,58.40
2023-04-18T10:37:19.239Z,58.61
2023-04-18T10:39:49.962Z,59.33
2023-04-18T10:42:18.476Z,61.08
2023-04-18T10:45:08.929Z,59.24
2023-04-18T10:47:35.511Z,58.66
2023-04-18T10:50:06.593Z,59.61
2023-04-18T10:52:34.787Z,58.66
2023-04-18T10:55:11.643Z,60.88
2023-04-18T10:57:42.175Z,60.54
2023-04-18T11:00:13.816Z,61.18
2023-04-18T11:02:41.149Z,60.90
2023-04-18T11:05:07.897Z,58.62
2023-04-18T11:07:40.479Z,60.34
2023-04-18T11:10:07.530Z,60.79
2023-04-18T11:12:36.377Z,58.06
2023-04-18T11:15:04.140Z,59.82
2023-04-18T11:17:41.301Z,60.41
2023-04-18T11:20:09.211Z,61.48
2023-04-18T11:22:51.883Z,61.04
2023-04-18T11:25:19.019Z,60.47
2023-04-18T11:27:49.257Z,61.00
2023-04-18T11:30:15.796Z,60.74
2023-04-18T11:32:42.229Z,61.66
2023-04-18T11:35:09.056Z,60.76
2023-04-18T11:37:36.348Z,58.53
2023-04-18T11:40:03.026Z,59.87
2023-04-18T11:42:32.693Z,60.62
2023-04-18T11:44:59.100Z,61.12
2023-04-18T11:47:33.149Z,61.11
2023-04-18T11:50:03.433Z,60.09
2023-04-18T11:52:31.033Z,59.51
2023-04-18T11:55:21.385Z,59.57
2023-04-18T11:58:01.689Z,58.59
2023-04-18T12:00:31.221Z,59.93
2023-04-18T12:02:58.667Z,59.29
2023-04-18T12:05:26.518Z,59.66
2023-04-18T12:07:54.477Z,60.93
2023-04-18T12:10:27.680Z,60.29
2023-04-18T12:12:58.472Z,60.91
2023-04-18T12:15:28.161Z,59.40
2023-04-18T12:18:01.527Z,58.42
2023-04-18T12:20:34.913Z,56.81
2023-04-18T12:23:02.403Z,58.56
2023-04-18T12:25:29.075Z,59.00
2023-04-18T12:27:56.500Z,58.60
2023-04-18T12:30:23.663Z,59.69
2023-04-18T12:32:50.880Z,58.15
2023-04-18T12:35:19.403Z,57.59
2023-04-18T12:37:49.381Z,58.16
2023-04-18T12:40:22.820Z,59.14
2023-04-18T12:42:49.826Z,59.73
2023-04-18T12:45:17.090Z,58.76
2023-04-18T12:47:44.648Z,58.29
2023-04-18T12:50:16.035Z,60.01
2023-04-18T12:52:42.459Z,58.96
2023-04-18T12:55:09.097Z,59.12
2023-04-18T12:57:35.693Z,59.41
2023-04-18T13:00:04.506Z,57.70
2023-04-18T13:02:34.661Z,59.45
2023-04-18T13:05:01.264Z,59.12
2023-04-18T13:07:28.778Z,59.70
2023-04-18T13:09:55.114Z,59.97
2023-04-18T13:12:21.767Z,60.49
2023-04-18T13:14:48.227Z,59.21
2023-04-18T13:17:14.561Z,59.27
2023-04-18T13:19:42.584Z,59.58
2023-04-18T13:22:09.093Z,60.31
2023-04-18T13:24:37.003Z,58.82
2023-04-18T13:27:10.426Z,58.57
2023-04-18T13:29:38.052Z,60.52
2023-04-18T13:32:04.950Z,60.57
2023-04-18T13:34:31.646Z,62.19
2023-04-18T13:36:59.074Z,63.61
2023-04-18T13:39:25.707Z,63.87
2023-04-18T13:41:53.493Z,63.21
2023-04-18T13:44:19.847Z,64.04
2023-04-18T13:46:46.291Z,63.83
2023-04-18T13:49:13.698Z,65.39
2023-04-18T13:51:40.320Z,66.65
2023-04-18T13:54:06.680Z,66.66
2023-04-18T13:56:33.091Z,66.26
2023-04-18T13:58:59.607Z,65.93
2023-04-18T14:01:26.063Z,67.25
2023-04-18T14:03:52.608Z,68.39
2023-04-18T14:06:21.759Z,66.81
2023-04-18T14:08:50.101Z,66.50
2023-04-18T14:11:16.608Z,67.58
2023-04-18T14:13:43.019Z,67.16
2023-04-18T14:16:09.496Z,66.31
2023-04-18T14:18:35.951Z,66.41
2023-04-18T14:21:02.355Z,67.97
2023-04-18T14:23:29.201Z,67.28
2023-04-18T14:25:55.593Z,68.10
2023-04-18T14:28:24.908Z,68.92
2023-04-18T14:30:51.940Z,67.34
2023-04-18T14:33:19.667Z,68.77
2023-04-18T14:35:47.275Z,67.73
2023-04-18T14:38:13.722Z,68.52
2023-04-18T14:40:40.455Z,68.23
2023-04-18T14:43:06.969Z,68.28
2023-04-18T14:45:34.001Z,68.53
2023-04-18T14:48:00.811Z,70.05
2023-04-18T14:50:28.504Z,69.88
2023-04-18T14:52:56.276Z,69.67
2023-04-18T14:55:22.703Z,69.14
2023-04-18T14:57:49.125Z,69.76
2023-04-18T15:00:15.802Z,69.79
2023-04-18T15:02:42.529Z,70.21
2023-04-18T15:05:09.937Z,70.13
2023-04-18T15:07:37.868Z,69.99
2023-04-18T15:10:04.862Z,69.15
2023-04-18T15:12:31.349Z,69.22
2023-04-18T15:14:57.761Z,70.12
2023-04-18T15:17:24.176Z,70.50
2023-04-18T15:19:50.557Z,69.14
2023-04-18T15:22:16.931Z,68.63
2023-04-18T15:24:43.292Z,68.27
2023-04-18T15:27:09.696Z,67.59
2023-04-18T15:29:36.717Z,65.98
2023-04-18T15:32:03.136Z,64.40
2023-04-18T15:34:29.710Z,63.28
2023-04-18T15:36:56.073Z,62.03
2023-04-18T15:39:23.632Z,61.08
2023-04-18T15:41:56.472Z,60.96
2023-04-18T15:44:23.283Z,60.04
2023-04-18T15:46:49.720Z,59.31
2023-04-18T15:49:16.066Z,60.50
2023-04-18T15:51:42.418Z,60.04
2023-04-18T15:54:09.000Z,56.93
2023-04-18T15:56:36.887Z,55.97
2023-04-18T15:59:04.378Z,54.39
2023-04-18T16:01:31.120Z,53.71
2023-04-18T16:03:57.682Z,53.95
2023-04-18T16:06:24.282Z,53.15
2023-04-18T16:08:50.794Z,53.70
2023-04-18T16:11:18.046Z,53.98
2023-04-18T16:13:44.390Z,54.07
2023-04-18T16:16:10.872Z,54.04
2023-04-18T16:18:37.324Z,54.52
2023-04-18T16:21:03.782Z,55.81
2023-04-18T16:23:31.807Z,55.72
2023-04-18T16:25:59.353Z,56.23
2023-04-18T16:28:28.022Z,56.60
2023-04-18T16:30:55.703Z,58.59
2023-04-18T16:33:25.679Z,59.66
2023-04-18T16:35:52.939Z,60.23
2023-04-18T16:38:19.331Z,61.61
2023-04-18T16:40:45.840Z,61.57
2023-04-18T16:43:12.182Z,61.84
2023-04-18T16:45:38.583Z,62.83
2023-04-18T16:48:05.177Z,62.04
2023-04-18T16:50:31.582Z,62.70
2023-04-18T16:52:57.958Z,62.02
2023-04-18T16:55:26.636Z,62.60
2023-04-18T16:57:52.999Z,62.95
2023-04-18T17:00:19.384Z,62.82
2023-04-18T17:02:45.813Z,62.43
2023-04-18T17:05:12.771Z,62.55
2023-04-18T17:07:39.371Z,62.84
2023-04-18T17:10:10.028Z,62.69
2023-04-18T17:12:36.539Z,63.01
2023-04-18T17:15:03.736Z,63.23
2023-04-18T17:17:30.080Z,62.98
2023-04-18T17:19:57.355Z,63.56
2023-04-18T17:22:24.386Z,64.12
2023-04-18T17:24:50.742Z,65.36
2023-04-18T17:27:17.107Z,66.17
2023-04-18T17:29:43.697Z,66.63
2023-04-18T17:32:10.143Z,67.18
2023-04-18T17:34:36.516Z,68.05
2023-04-18T17:37:03.054Z,68.66
2023-04-18T17:39:31.012Z,69.35
2023-04-18T17:41:57.423Z,69.78
2023-04-18T17:44:23.790Z,70.03
2023-04-18T17:46:50.562Z,71.00
2023-04-18T17:49:17.180Z,70.54
2023-04-18T17:51:43.576Z,70.62
2023-04-18T17:54:11.142Z,71.15
2023-04-18T17:56:37.671Z,70.98
2023-04-18T17:59:04.094Z,70.14
2023-04-18T18:01:30.609Z,69.76
2023-04-18T18:03:57.283Z,69.63
2023-04-18T18:06:23.738Z,69.99
2023-04-18T18:08:50.097Z,70.00
2023-04-18T18:11:16.541Z,69.77
2023-04-18T18:13:43.070Z,69.70
2023-04-18T18:16:09.601Z,69.07
2023-04-18T18:18:37.237Z,68.41
2023-04-18T18:21:03.900Z,68.09
2023-04-18T18:23:30.487Z,69.19
2023-04-18T18:25:57.325Z,68.12
2023-04-18T18:28:23.751Z,68.02
2023-04-18T18:30:50.062Z,68.09
2023-04-18T18:33:16.507Z,67.70
2023-04-18T18:35:42.966Z,68.01
2023-04-18T18:38:09.339Z,67.92
2023-04-18T18:40:35.707Z,67.89
2023-04-18T18:43:26.270Z,67.41
2023-04-18T18:45:52.733Z,67.75
2023-04-18T18:48:21.623Z,67.57
2023-04-18T18:50:48.057Z,67.91
2023-04-18T18:53:16.907Z,67.00
2023-04-18T18:55:43.577Z,66.78
2023-04-18T18:58:10.057Z,67.55
2023-04-18T19:00:36.397Z,66.60
2023-04-18T19:03:03.178Z,66.65
2023-04-18T19:05:29.766Z,67.67
2023-04-18T19:07:57.129Z,67.06
2023-04-18T19:10:23.497Z,66.86
2023-04-18T19:12:49.937Z,66.85
2023-04-18T19:15:16.499Z,66.08
2023-04-18T19:17:42.896Z,66.54
2023-04-18T19:20:10.700Z,66.37
2023-04-18T19:22:37.950Z,66.07
2023-04-18T19:25:04.526Z,66.15
2023-04-18T19:27:31.015Z,66.55
2023-04-18T19:29:57.379Z,66.79
2023-04-18T19:32:24.918Z,66.87
2023-04-18T19:34:51.514Z,67.15
2023-04-18T19:37:17.948Z,67.33
2023-04-18T19:39:44.312Z,67.65
2023-04-18T19:42:12.027Z,66.99
2023-04-18T19:44:38.373Z,67.53
2023-04-18T19:47:04.769Z,67.02
2023-04-18T19:49:31.237Z,67.51
2023-04-18T19:51:57.622Z,67.79
2023-04-18T19:54:25.219Z,67.83
2023-04-18T19:56:54.490Z,68.14
2023-04-18T19:59:20.840Z,69.12
2023-04-18T20:01:47.550Z,69.21
2023-04-18T20:04:14.224Z,69.58
2023-04-18T20:06:40.748Z,69.51
2023-04-18T20:09:08.628Z,69.09
2023-04-18T20:11:35.077Z,69.53
2023-04-18T20:14:01.589Z,70.47
2023-04-18T20:16:28.105Z,70.37
2023-04-18T20:18:55.191Z,70.52
2023-04-18T20:21:21.592Z,70.33
2023-04-18T20:26:14.662Z,70.18
2023-04-18T20:28:43.662Z,69.48
2023-04-18T20:31:10.954Z,70.31
2023-04-18T20:33:38.154Z,70.43
2023-04-18T20:36:06.325Z,70.50
2023-04-18T20:38:34.813Z,70.51
2023-04-18T20:41:10.725Z,70.50
2023-04-18T20:43:38.605Z,70.24
2023-04-18T20:46:05.055Z,70.22
2023-04-18T20:48:31.518Z,70.54
2023-04-18T20:50:58.037Z,70.26
2023-04-18T20:53:29.984Z,70.02
2023-04-18T20:55:56.422Z,70.61
2023-04-18T20:58:25.408Z,70.73
2023-04-18T21:00:52.041Z,70.52
2023-04-18T21:03:18.511Z,71.67
2023-04-18T21:05:45.175Z,70.88
2023-04-18T21:08:11.624Z,71.44
2023-04-18T21:10:38.160Z,72.05
2023-04-18T21:13:04.542Z,71.05
2023-04-18T21:15:30.895Z,71.93
2023-04-18T21:17:57.445Z,71.88
2023-04-18T21:20:23.820Z,72.54
2023-04-18T21:22:50.163Z,71.88
2023-04-18T21:25:16.898Z,72.52
2023-04-18T21:27:43.426Z,72.41
2023-04-18T21:30:10.227Z,73.28
2023-04-18T21:32:36.824Z,73.08
2023-04-18T21:35:03.248Z,72.90
2023-04-18T21:37:29.959Z,73.86
2023-04-18T21:39:56.480Z,73.38
2023-04-18T21:42:22.831Z,73.18
2023-04-18T21:44:49.197Z,73.41
2023-04-18T21:47:15.637Z,73.79
2023-04-18T21:49:42.613Z,74.90
2023-04-18T21:52:09.077Z,74.85
2023-04-18T21:54:35.696Z,74.58
2023-04-18T21:57:02.653Z,75.25
2023-04-18T21:59:29.550Z,74.77
2023-04-18T22:01:56.015Z,74.83
2023-04-18T22:04:25.982Z,75.32
2023-04-18T22:06:55.510Z,75.24
2023-04-18T22:09:22.551Z,75.98
2023-04-18T22:11:50.171Z,75.56
2023-04-18T22:14:16.643Z,76.28
2023-04-18T22:16:45.129Z,75.93
2023-04-18T22:19:13.964Z,76.67
2023-04-18T22:21:40.334Z,76.23
2023-04-18T22:24:07.003Z,76.49
2023-04-18T22:26:33.384Z,77.28
2023-04-18T22:28:59.804Z,76.91
2023-04-18T22:31:26.385Z,77.86
2023-04-18T22:33:52.856Z,76.75
2023-04-18T22:36:19.288Z,76.99
2023-04-18T22:38:45.694Z,76.24
2023-04-18T22:41:13.021Z,76.06
2023-04-18T22:43:39.381Z,77.05
2023-04-18T22:46:06.169Z,77.33
2023-04-18T22:48:35.046Z,77.27
2023-04-18T22:51:01.888Z,76.83
2023-04-18T22:53:28.596Z,77.58
2023-04-18T22:55:54.995Z,77.20
2023-04-18T22:58:21.401Z,77.78
2023-04-18T23:00:47.808Z,78.06
2023-04-18T23:03:14.280Z,78.17
2023-04-18T23:05:41.693Z,77.92
2023-04-18T23:08:08.314Z,79.08
2023-04-18T23:10:36.057Z,78.79
2023-04-18T23:13:02.434Z,78.11
2023-04-18T23:15:28.921Z,77.62
2023-04-18T23:17:55.464Z,78.17
2023-04-18T23:20:21.983Z,77.80
2023-04-18T23:22:51.456Z,77.91
2023-04-18T23:25:19.290Z,77.93
2023-04-18T23:27:45.794Z,77.59
2023-04-18T23:30:12.499Z,77.62
2023-04-18T23:32:38.969Z,77.84
2023-04-18T23:35:05.993Z,77.26
2023-04-18T23:37:35.026Z,77.58
2023-04-18T23:40:01.879Z,76.48
2023-04-18T23:42:28.668Z,76.16
2023-04-18T23:44:55.120Z,76.45
2023-04-18T23:47:21.956Z,75.92
2023-04-18T23:49:48.422Z,75.14
2023-04-18T23:52:17.189Z,76.47
2023-04-18T23:54:43.556Z,77.30
2023-04-18T23:57:10.128Z,77.82
2023-04-18T23:59:36.543Z,78.54
